DW8453 Bekkjarvik NO current weather conditions

sailwx.info

Wind from 014 at 11 knots gusting 11

Air temperature 4.4° C
Dewpoint -0.7° C

Last reported at 2017-Apr-25 21:37 UTC.
Time now 2017-Apr-26 09:53 UTC

Location: N 60°01' E 005°12'.
View on Google Maps.

See reports from other nearby stations

  
Tides and Currents Weather Stations Pressure Air Temp Water Temp Dewpoint Dewpoint Depression Visibility Wind Speed Wind Dir Waves Ship Positions
date/time (UTC)wind fromknots sea level pressurealtimeterstation pressurevisibilityair tempwater tempwave heightnotes
2017-Apr-25 21:37 014 11 gusting 11 4.4
2017-Apr-25 21:32 016 7 gusting 13 4.4
2017-Apr-25 21:27 035 11 gusting 13 4.4
2017-Apr-25 21:22 011 8 gusting 12 4.4
2017-Apr-25 21:17 024 6 gusting 11 5.0
2017-Apr-25 21:12 017 5 gusting 7 5.0
2017-Apr-25 21:07 346 6 gusting 12 5.0
2017-Apr-25 21:02 026 6 gusting 13 5.0
2017-Apr-25 20:57 006 8 gusting 13 5.0
2017-Apr-25 20:52 023 10 gusting 12 5.0
2017-Apr-25 20:47 009 6 gusting 11 5.0
2017-Apr-25 20:42 007 4 gusting 8 5.0
2017-Apr-25 20:37 007 6 gusting 8 5.0
2017-Apr-25 20:32 063 6 gusting 10 5.6
2017-Apr-25 20:27 007 12 gusting 11 5.6
2017-Apr-25 20:22 352 7 gusting 12 5.6
2017-Apr-25 20:17 007 5 gusting 11 5.6
2017-Apr-25 20:12 321 7 gusting 12 5.6
2017-Apr-25 20:07 007 7 gusting 11 5.6
2017-Apr-25 20:02 008 10 gusting 13 6.1
2017-Apr-25 19:57 024 10 gusting 12 6.1
2017-Apr-25 19:52 025 12 gusting 13 6.1
2017-Apr-25 19:47 337 10 gusting 13 6.7
2017-Apr-25 19:42 354 8 gusting 13 6.7
2017-Apr-25 19:37 012 10 gusting 13 6.7
2017-Apr-25 19:32 009 10 gusting 13 7.2
2017-Apr-25 19:27 357 7 gusting 8 7.2
2017-Apr-25 19:22 004 8 gusting 10 7.8
2017-Apr-25 19:17 342 12 gusting 12 7.8
2017-Apr-25 19:12 046 6 gusting 10 8.3
2017-Apr-25 19:07 322 6 gusting 12 8.9
2017-Apr-25 19:02 9.4
2017-Apr-25 18:57 349 13 gusting 13 10.0
2017-Apr-25 18:52 034 8 gusting 12 10.6
2017-Apr-25 18:47 358 8 gusting 13 10.6
2017-Apr-25 18:42 344 6 gusting 8 11.1
2017-Apr-25 18:37 020 6 gusting 10 11.7
2017-Apr-25 18:32 358 6 gusting 10 11.7
2017-Apr-25 18:27 331 10 gusting 10 12.2
2017-Apr-25 18:22 12.2
2017-Apr-25 18:17 010 7 gusting 13 12.2
2017-Apr-25 18:12 010 10 gusting 12 12.8
2017-Apr-25 18:07 347 7 gusting 8 13.9
2017-Apr-25 18:02 007 11 gusting 12 15.0
2017-Apr-25 17:57 107 5 gusting 10 15.0
2017-Apr-25 17:52 020 8 gusting 11 13.9
2017-Apr-25 17:47 005 5 gusting 7 13.9
2017-Apr-25 17:42 015 12 gusting 13 13.3
2017-Apr-25 17:37 358 11 gusting 12 12.8
2017-Apr-25 17:32 353 7 gusting 12 12.8
2017-Apr-25 17:27 351 10 gusting 13 12.8
2017-Apr-25 17:22 306 11 gusting 13 12.2
2017-Apr-25 17:17 11.1
2017-Apr-25 17:12 016 14 gusting 13 10.0
2017-Apr-25 17:07 354 6 gusting 10 9.4
2017-Apr-25 17:02 034 7 gusting 11 9.4
2017-Apr-25 16:57 350 15 gusting 17 9.4
2017-Apr-25 16:52 039 3 gusting 11 9.4
2017-Apr-25 16:47 033 10 gusting 13 9.4
2017-Apr-25 16:42 046 14 gusting 13 9.4
2017-Apr-25 16:37 002 10 gusting 13 9.4
2017-Apr-25 16:32 352 6 gusting 12 9.4
2017-Apr-25 16:27 043 15 gusting 15 9.4
2017-Apr-25 16:22 034 8 gusting 10 9.4
2017-Apr-25 16:17 288 10 gusting 12 9.4
2017-Apr-25 16:12 350 6 gusting 13 9.4
2017-Apr-25 16:07 063 11 gusting 12 9.4
2017-Apr-25 16:02 010 13 gusting 21 8.9
2017-Apr-25 15:57 021 11 gusting 13 8.9
2017-Apr-25 15:52 007 5 gusting 6 8.9
2017-Apr-25 15:47 020 8 gusting 10 8.9
2017-Apr-25 15:42 028 14 gusting 17 8.9
2017-Apr-25 15:37 323 14 gusting 18 8.9
2017-Apr-25 15:32 332 12 gusting 15 8.9
2017-Apr-25 15:27 011 12 gusting 14 8.9
2017-Apr-25 15:22 8.9
2017-Apr-25 15:17 009 16 gusting 17 9.4
2017-Apr-25 15:12 002 7 gusting 14 9.4
2017-Apr-25 15:07 8.9
2017-Apr-25 15:02 003 13 gusting 14 9.4
2017-Apr-25 14:57 349 12 gusting 13 9.4
2017-Apr-25 14:52 007 11 gusting 13 9.4
2017-Apr-25 14:42 026 13 gusting 18 9.4
2017-Apr-25 14:37 9.4
2017-Apr-25 14:32 008 5 gusting 11 9.4
2017-Apr-25 14:27 019 8 gusting 13 9.4
2017-Apr-25 14:22 008 13 gusting 13 8.9
2017-Apr-25 14:17 010 17 gusting 15 8.9
2017-Apr-25 14:12 357 12 gusting 17 8.9
2017-Apr-25 14:07 342 12 gusting 14 8.9
2017-Apr-25 14:02 355 13 gusting 13 8.9
2017-Apr-25 13:57 340 7 gusting 11 8.9
2017-Apr-25 13:52 002 8 gusting 11 8.9
2017-Apr-25 13:47 344 6 gusting 12 8.9
2017-Apr-25 13:42 351 7 gusting 11 8.3
2017-Apr-25 13:37 356 11 gusting 13 8.3
2017-Apr-25 13:32 002 15 gusting 13 8.9
2017-Apr-25 13:27 357 9 gusting 11 8.9
2017-Apr-25 13:22 341 6 gusting 10 8.3
2017-Apr-25 13:17 349 9 gusting 12 8.9
2017-Apr-25 13:12 006 5 gusting 10 8.9
2017-Apr-25 13:07 046 4 gusting 10 8.9
2017-Apr-25 13:02 350 13 gusting 15 8.3
2017-Apr-25 12:57 8.3
2017-Apr-25 12:52 050 8 gusting 13 8.3
2017-Apr-25 12:47 055 10 gusting 15 8.3
2017-Apr-25 12:42 067 9 gusting 13 8.3
2017-Apr-25 12:37 019 6 gusting 12 8.3
2017-Apr-25 12:32 043 10 gusting 14 8.3
2017-Apr-25 12:27 038 7 gusting 13 8.3
2017-Apr-25 12:22 353 9 gusting 14 8.3
2017-Apr-25 12:17 026 8 gusting 13 8.3
2017-Apr-25 12:12 010 5 gusting 13 8.3
2017-Apr-25 12:07 039 12 gusting 14 7.8
2017-Apr-25 12:02 339 10 gusting 12 7.8
2017-Apr-25 11:57 029 7 gusting 13 7.8
2017-Apr-25 11:52 352 5 gusting 10 7.8
2017-Apr-25 11:47 018 5 gusting 13 7.8
2017-Apr-25 11:42 002 9 gusting 13 7.8
2017-Apr-25 11:37 046 2 gusting 12 7.8
2017-Apr-25 11:32 356 5 gusting 7 7.8
2017-Apr-25 11:27 022 5 gusting 8 7.8
2017-Apr-25 11:23 042 7 gusting 13 7.2
2017-Apr-25 11:17 002 5 gusting 13 7.2
2017-Apr-25 11:12 058 7 gusting 13 7.2
2017-Apr-25 11:07 352 13 gusting 14 7.2
2017-Apr-25 11:02 013 13 gusting 14 7.2
2017-Apr-25 10:57 354 8 gusting 11 7.2
2017-Apr-25 10:52 013 11 gusting 12 7.2
2017-Apr-25 10:47 047 7 gusting 12 6.7
2017-Apr-25 10:42 021 9 gusting 13 6.7
2017-Apr-25 10:37 339 7 gusting 7 6.7
2017-Apr-25 10:32 035 4 gusting 7 6.7
2017-Apr-25 10:27 009 6 gusting 11 6.7
2017-Apr-25 10:22 018 12 gusting 12 6.7
2017-Apr-25 10:17 031 7 gusting 12 6.7
2017-Apr-25 10:12 031 7 gusting 11 6.7
2017-Apr-25 10:07 019 6 gusting 11 6.1
2017-Apr-25 10:02 012 6 gusting 13 6.1
2017-Apr-25 09:57 352 7 gusting 11 6.1
2017-Apr-25 09:52 006 11 gusting 13 6.1
2017-Apr-25 09:47 011 7 gusting 8 6.1
2017-Apr-25 09:42 5.6
2017-Apr-25 09:37 006 6 gusting 11 5.6
2017-Apr-25 09:32 001 10 gusting 11 6.1
2017-Apr-25 09:27 018 10 gusting 12 5.6
2017-Apr-25 09:22 341 9 gusting 12 5.6
2017-Apr-25 09:17 350 12 gusting 13 5.6
2017-Apr-25 09:12 003 9 gusting 14 5.6
2017-Apr-25 09:07 017 7 gusting 10 5.6
2017-Apr-25 09:02 022 11 gusting 13 5.6
2017-Apr-25 08:57 156 6 gusting 10 5.6
2017-Apr-25 08:52 017 10 gusting 12 5.6
2017-Apr-25 08:47 350 6 gusting 8 5.6
2017-Apr-25 08:42 020 10 gusting 13 5.6
2017-Apr-25 08:37 316 7 gusting 10 5.6
2017-Apr-25 08:32 009 9 gusting 12 5.6
2017-Apr-25 08:27 027 8 gusting 13 5.6
2017-Apr-25 08:22 5.6
2017-Apr-25 08:17 008 7 gusting 12 5.6
2017-Apr-25 08:12 011 11 gusting 12 5.6
2017-Apr-25 08:07 001 8 gusting 11 5.6
2017-Apr-25 08:02 001 5 gusting 13 5.0
2017-Apr-25 07:57 001 6 gusting 10 5.0
2017-Apr-25 07:52 019 6 gusting 10 4.4
2017-Apr-25 07:47 002 10 gusting 12 4.4
2017-Apr-25 07:42 341 11 gusting 13 4.4
2017-Apr-25 07:37 009 10 gusting 12 3.9
2017-Apr-25 07:32 001 6 gusting 8 3.9
2017-Apr-25 07:27 014 12 gusting 12 3.9
2017-Apr-25 07:22 3.9
2017-Apr-25 07:17 027 7 gusting 6 3.3
2017-Apr-25 07:12 022 3 gusting 10 3.3
2017-Apr-25 07:07 026 5 gusting 13 3.3
2017-Apr-25 07:02 015 10 gusting 13 2.8
2017-Apr-24 19:32 320 13 gusting 14 3.3
2017-Apr-24 19:27 353 15 gusting 15 3.3
2017-Apr-24 19:22 348 14 gusting 18 3.3
2017-Apr-24 19:17 355 17 gusting 22 3.3
2017-Apr-24 19:12 328 8 gusting 13 3.3
2017-Apr-24 19:07 316 11 gusting 13 3.3
2017-Apr-24 19:02 356 17 gusting 17 3.9
2017-Apr-24 18:57 347 18 gusting 22 3.9
2017-Apr-24 18:52 016 14 gusting 19 3.9
2017-Apr-24 18:47 003 11 gusting 15 4.4
2017-Apr-24 18:42 354 19 gusting 18 3.9
2017-Apr-24 18:37 356 18 gusting 17 3.9
2017-Apr-24 18:32 002 17 gusting 17 3.9
2017-Apr-24 18:27 353 13 gusting 13 3.9
2017-Apr-24 18:22 336 13 gusting 14 3.9
2017-Apr-24 18:17 330 12 gusting 13 4.4
2017-Apr-24 18:12 329 17 gusting 18 4.4
2017-Apr-24 18:07 334 11 gusting 15 5.0
2017-Apr-24 18:02 347 20 gusting 19 4.4
2017-Apr-24 17:57 338 22 gusting 21 4.4
2017-Apr-24 17:52 336 12 gusting 15 5.0
2017-Apr-24 17:47 325 17 gusting 19 5.6
2017-Apr-24 17:42 333 23 gusting 22 5.0
2017-Apr-24 17:37 326 14 gusting 17 5.0
2017-Apr-24 17:32 336 15 gusting 19 5.0
2017-Apr-24 17:27 341 25 gusting 24 4.4
2017-Apr-24 17:22 347 15 gusting 17 4.4
2017-Apr-24 17:17 350 19 gusting 20 4.4
2017-Apr-24 17:12 331 15 gusting 20 4.4
2017-Apr-24 17:07 347 15 gusting 18 4.4
2017-Apr-24 17:02 349 11 gusting 15 4.4
2017-Apr-24 16:57 341 14 gusting 18 4.4
2017-Apr-24 16:52 305 16 gusting 18 4.4
2017-Apr-24 16:47 334 16 gusting 19 4.4
2017-Apr-24 16:42 325 21 gusting 19 3.9
2017-Apr-24 16:37 351 12 gusting 18 3.9
2017-Apr-24 16:32 328 12 gusting 15 3.9
2017-Apr-24 16:27 309 18 gusting 20 3.9
2017-Apr-24 16:22 346 14 gusting 20 3.9
2017-Apr-24 16:17 338 14 gusting 15 3.9
2017-Apr-24 16:12 329 13 gusting 19 3.3
2017-Apr-24 16:07 332 13 gusting 18 3.3
2017-Apr-24 16:02 345 15 gusting 15 2.8
2017-Apr-24 15:57 312 14 gusting 19 2.2
2017-Apr-24 15:52 325 13 gusting 18 2.2
2017-Apr-24 15:47 013 21 gusting 22 2.2
2017-Apr-24 15:42 343 15 gusting 19 2.8
2017-Apr-24 15:37 338 17 gusting 21 3.3
2017-Apr-24 15:32 350 24 gusting 25 4.4
2017-Apr-24 15:27 353 13 gusting 17 4.4
2017-Apr-24 15:22 330 14 gusting 17 3.9
2017-Apr-24 15:17 335 14 gusting 17 3.9
2017-Apr-24 15:12 317 13 gusting 20 3.9
2017-Apr-24 15:07 349 24 gusting 24 3.9
2017-Apr-24 14:52 279 20 gusting 21 3.9
2017-Apr-24 14:47 315 19 gusting 21 3.9
2017-Apr-24 14:42 318 16 gusting 20 3.9
2017-Apr-24 14:37 315 22 gusting 20 3.9
2017-Apr-24 14:32 312 13 gusting 18 3.3
2017-Apr-24 14:27 324 15 gusting 20 3.3
2017-Apr-24 14:22 303 21 gusting 20 2.8
2017-Apr-24 14:17 338 13 gusting 19 2.2
2017-Apr-24 14:12 324 15 gusting 19 2.2
2017-Apr-24 14:07 283 21 gusting 22 2.2
2017-Apr-24 14:02 332 25 gusting 22 2.2
2017-Apr-24 13:57 326 24 gusting 21 2.2
2017-Apr-24 13:52 334 25 gusting 22 2.2
2017-Apr-24 13:47 315 15 gusting 20 2.8
2017-Apr-24 13:42 339 21 gusting 25 3.3
2017-Apr-24 13:37 327 17 gusting 18 3.9
2017-Apr-24 13:32 320 15 gusting 17 3.9
2017-Apr-24 13:27 343 13 gusting 13 3.9
2017-Apr-24 13:22 325 18 gusting 19 3.3
2017-Apr-24 13:17 356 19 gusting 21 3.9
2017-Apr-24 13:12 353 15 gusting 18 3.9
2017-Apr-24 13:07 317 14 gusting 15 3.9
2017-Apr-24 13:02 340 15 gusting 17 3.3
2017-Apr-24 12:57 337 10 gusting 13 2.8
2017-Apr-24 12:52 338 16 gusting 20 3.3
2017-Apr-24 12:47 335 26 gusting 26 3.9
2017-Apr-24 12:42 332 19 gusting 20 3.9
2017-Apr-24 12:37 311 14 gusting 19 3.9
2017-Apr-24 12:32 304 17 gusting 19 4.4
2017-Apr-24 12:27 334 18 gusting 20 3.9
2017-Apr-24 12:22 339 13 gusting 19 3.9
2017-Apr-24 12:17 336 12 gusting 19 3.3
2017-Apr-24 12:12 298 13 gusting 14 3.9
2017-Apr-24 12:07 334 19 gusting 19 3.9
2017-Apr-24 12:02 327 17 gusting 19 3.9
2017-Apr-24 11:57 335 10 gusting 14 3.9
2017-Apr-24 11:52 014 14 gusting 14 3.3
2017-Apr-24 11:47 356 17 gusting 19 3.3
2017-Apr-24 11:42 353 13 gusting 18 3.3
2017-Apr-24 11:37 351 15 gusting 19 3.9
2017-Apr-24 11:32 347 15 gusting 17 4.4
2017-Apr-24 11:27 338 8 gusting 14 3.9
2017-Apr-24 11:22 330 10 gusting 13 3.9
2017-Apr-24 11:17 324 11 gusting 14 3.9
2017-Apr-24 11:12 329 8 gusting 13 3.9
2017-Apr-24 11:07 355 10 gusting 15 3.9
2017-Apr-24 11:02 353 18 gusting 20 4.4
2017-Apr-24 10:57 338 15 gusting 19 3.9
2017-Apr-24 10:52 354 13 gusting 19 4.4
2017-Apr-24 10:47 037 19 gusting 19 4.4
2017-Apr-24 10:42 355 13 gusting 19 4.4
2017-Apr-24 10:37 338 19 gusting 18 4.4
2017-Apr-24 10:32 005 11 gusting 17 4.4
2017-Apr-24 10:27 319 12 gusting 20 4.4
2017-Apr-24 10:22 318 19 gusting 19 3.9
2017-Apr-24 10:17 321 21 gusting 20 3.3
2017-Apr-24 10:12 322 17 gusting 21 3.3
2017-Apr-24 10:07 329 13 gusting 18 3.3
2017-Apr-24 10:02 326 12 gusting 19 3.3
2017-Apr-24 09:57 332 20 gusting 21 3.3
2017-Apr-24 09:52 336 24 gusting 24 3.3
2017-Apr-24 09:47 335 23 gusting 25 3.9
2017-Apr-24 09:42 319 18 gusting 22 4.4
2017-Apr-24 09:37 358 13 gusting 19 4.4